createdAt,value
2022-12-03T00:03:36.075Z,13.70
2022-12-03T00:06:24.268Z,13.77
2022-12-03T00:09:11.351Z,12.65
2022-12-03T00:11:58.375Z,14.20
2022-12-03T00:14:45.447Z,13.40
2022-12-03T00:17:32.513Z,14.60
2022-12-03T00:20:22.831Z,14.18
2022-12-03T00:23:09.904Z,12.85
2022-12-03T00:25:57.115Z,14.52
2022-12-03T00:28:44.290Z,15.20
2022-12-03T00:31:31.369Z,13.85
2022-12-03T00:34:18.500Z,14.05
2022-12-03T00:37:05.638Z,13.52
2022-12-03T00:39:52.653Z,13.75
2022-12-03T00:42:39.733Z,14.15
2022-12-03T00:45:26.736Z,14.48
2022-12-03T00:48:13.760Z,14.98
2022-12-03T00:51:00.790Z,18.55
2022-12-03T00:53:47.869Z,15.35
2022-12-03T00:56:34.923Z,15.90
2022-12-03T00:59:21.958Z,15.18
2022-12-03T01:02:09.197Z,14.63
2022-12-03T01:04:56.629Z,14.73
2022-12-03T01:07:45.577Z,15.18
2022-12-03T01:10:32.647Z,14.63
2022-12-03T01:13:19.664Z,13.95
2022-12-03T01:16:10.061Z,15.05
2022-12-03T01:18:57.231Z,14.38
2022-12-03T01:21:46.426Z,15.45
2022-12-03T01:24:33.519Z,11.13
2022-12-03T01:27:20.668Z,14.20
2022-12-03T01:30:08.694Z,15.18
2022-12-03T01:32:55.751Z,14.43
2022-12-03T01:35:42.805Z,13.88
2022-12-03T01:38:29.828Z,14.80
2022-12-03T01:41:18.644Z,15.80
2022-12-03T01:44:21.273Z,15.50
2022-12-03T01:47:15.136Z,13.52
2022-12-03T01:50:06.831Z,14.90
2022-12-03T01:52:56.523Z,14.85
2022-12-03T01:55:48.314Z,15.02
2022-12-03T01:58:35.798Z,16.08
2022-12-03T02:01:22.899Z,14.13
2022-12-03T02:04:14.274Z,14.20
2022-12-03T02:07:22.946Z,14.98
2022-12-03T02:10:13.243Z,15.48
2022-12-03T02:13:05.047Z,13.88
2022-12-03T02:15:52.246Z,13.82
2022-12-03T02:18:39.398Z,14.25
2022-12-03T02:21:58.658Z,14.60
2022-12-03T02:25:09.260Z,15.63
2022-12-03T02:27:56.512Z,14.43
2022-12-03T02:30:45.240Z,14.25
2022-12-03T02:33:32.677Z,14.48
2022-12-03T02:36:20.817Z,14.63
2022-12-03T02:39:07.935Z,15.23
2022-12-03T02:42:13.576Z,14.18
2022-12-03T02:45:12.511Z,14.15
2022-12-03T02:48:02.899Z,13.68
2022-12-03T02:50:57.604Z,14.63
2022-12-03T02:53:47.718Z,16.67
2022-12-03T02:56:35.021Z,14.73
2022-12-03T02:59:22.228Z,14.07
2022-12-03T03:02:13.815Z,14.70
2022-12-03T03:05:00.970Z,14.15
2022-12-03T03:07:49.013Z,13.98
2022-12-03T03:10:39.217Z,14.63
2022-12-03T03:16:13.293Z,14.05
2022-12-03T03:19:01.059Z,13.70
2022-12-03T03:21:48.198Z,14.38
2022-12-03T03:24:35.276Z,14.68
2022-12-03T03:27:22.336Z,13.32
2022-12-03T03:30:10.381Z,13.35
2022-12-03T03:32:57.820Z,13.55
2022-12-03T03:35:47.386Z,13.02
2022-12-03T03:38:35.761Z,13.52
2022-12-03T03:41:23.086Z,12.68
2022-12-03T03:44:10.616Z,13.45
2022-12-03T03:46:57.740Z,13.20
2022-12-03T03:49:45.010Z,12.82
2022-12-03T03:52:32.162Z,11.95
2022-12-03T03:55:20.590Z,13.25
2022-12-03T03:58:07.852Z,12.60
2022-12-03T04:00:55.024Z,11.80
2022-12-03T04:03:42.229Z,11.73
2022-12-03T04:06:29.339Z,13.45
2022-12-03T04:09:16.376Z,12.40
2022-12-03T04:12:22.275Z,12.90
2022-12-03T04:15:09.681Z,11.40
2022-12-03T04:18:36.275Z,11.75
2022-12-03T04:21:45.355Z,11.95
2022-12-03T04:24:32.398Z,11.82
2022-12-03T04:27:38.091Z,11.32
2022-12-03T04:30:25.323Z,11.45
2022-12-03T04:33:31.143Z,12.52
2022-12-03T04:36:18.195Z,11.15
2022-12-03T04:39:05.455Z,12.27
2022-12-03T04:41:52.528Z,11.20
2022-12-03T04:44:39.640Z,11.63
2022-12-03T04:47:26.696Z,12.15
2022-12-03T04:50:13.784Z,11.20
2022-12-03T04:53:00.775Z,11.77
2022-12-03T04:55:47.898Z,10.68
2022-12-03T04:58:34.929Z,11.65
2022-12-03T05:01:22.141Z,11.70
2022-12-03T05:04:09.394Z,11.20
2022-12-03T05:06:56.599Z,11.30
2022-12-03T05:09:43.649Z,11.30
2022-12-03T05:12:30.730Z,12.45
2022-12-03T05:15:17.956Z,10.80
2022-12-03T05:18:05.230Z,11.93
2022-12-03T05:20:53.656Z,11.25
2022-12-03T05:23:41.003Z,10.55
2022-12-03T05:26:28.169Z,10.63
2022-12-03T05:29:15.188Z,11.07
2022-12-03T05:32:02.261Z,11.27
2022-12-03T05:34:49.401Z,11.32
2022-12-03T05:37:36.437Z,10.68
2022-12-03T05:40:24.342Z,11.55
2022-12-03T05:43:11.464Z,10.65
2022-12-03T05:45:58.564Z,11.55
2022-12-03T05:48:45.723Z,11.13
2022-12-03T05:51:32.755Z,10.93
2022-12-03T05:54:19.866Z,10.75
2022-12-03T05:57:07.116Z,10.88
2022-12-03T05:59:54.196Z,11.82
2022-12-03T06:02:41.850Z,11.05
2022-12-03T06:05:29.046Z,10.90
2022-12-03T06:08:16.083Z,10.90
2022-12-03T06:11:03.269Z,9.88
2022-12-03T06:13:50.270Z,10.77
2022-12-03T06:16:37.401Z,11.10
2022-12-03T06:19:24.487Z,11.40
2022-12-03T06:22:11.514Z,10.80
2022-12-03T06:25:04.831Z,10.43
2022-12-03T06:27:53.489Z,11.48
2022-12-03T06:30:40.521Z,10.98
2022-12-03T06:33:27.565Z,11.13
2022-12-03T06:36:17.701Z,11.07
2022-12-03T06:39:07.036Z,11.07
2022-12-03T06:41:54.051Z,11.93
2022-12-03T06:44:41.365Z,12.68
2022-12-03T06:47:28.361Z,11.88
2022-12-03T06:50:17.857Z,11.88
2022-12-03T06:53:04.897Z,11.68
2022-12-03T06:55:51.919Z,11.90
2022-12-03T06:58:38.981Z,11.13
2022-12-03T07:01:26.187Z,11.23
2022-12-03T07:04:13.309Z,11.32
2022-12-03T07:07:01.509Z,11.10
2022-12-03T07:09:48.527Z,10.90
2022-12-03T07:12:35.565Z,11.82
2022-12-03T07:15:22.542Z,11.48
2022-12-03T07:18:09.593Z,10.55
2022-12-03T07:20:56.571Z,11.00
2022-12-03T07:23:44.645Z,11.60
2022-12-03T07:26:38.572Z,10.30
2022-12-03T07:29:25.735Z,10.13
2022-12-03T07:32:12.774Z,10.73
2022-12-03T07:35:01.226Z,10.95
2022-12-03T07:37:57.597Z,11.15
2022-12-03T07:40:45.334Z,12.02
2022-12-03T07:43:32.579Z,11.95
2022-12-03T07:46:38.203Z,10.52
2022-12-03T07:49:26.833Z,11.48
2022-12-03T07:52:13.954Z,10.63
2022-12-03T07:55:01.118Z,12.10
2022-12-03T07:57:48.183Z,11.30
2022-12-03T08:00:36.398Z,11.20
2022-12-03T08:03:24.122Z,12.10
2022-12-03T08:06:11.186Z,12.35
2022-12-03T08:08:58.274Z,11.52
2022-12-03T08:11:48.408Z,11.07
2022-12-03T08:14:35.921Z,11.57
2022-12-03T08:17:59.936Z,10.75
2022-12-03T08:20:49.119Z,12.00
2022-12-03T08:23:36.672Z,12.13
2022-12-03T08:26:26.399Z,11.93
2022-12-03T08:29:16.498Z,12.35
2022-12-03T08:32:06.375Z,11.90
2022-12-03T08:34:53.699Z,10.73
2022-12-03T08:37:41.560Z,11.13
2022-12-03T08:40:36.174Z,11.05
2022-12-03T08:43:26.232Z,11.00
2022-12-03T08:46:21.234Z,11.05
2022-12-03T08:49:09.620Z,11.43
2022-12-03T08:52:01.329Z,10.77
2022-12-03T08:54:56.172Z,11.23
2022-12-03T08:57:46.616Z,10.48
2022-12-03T09:03:22.987Z,11.40
2022-12-03T09:06:10.064Z,10.50
2022-12-03T09:08:57.077Z,11.02
2022-12-03T09:11:44.723Z,10.75
2022-12-03T09:14:31.761Z,13.15
2022-12-03T09:17:18.804Z,10.05
2022-12-03T09:20:06.812Z,10.23
2022-12-03T09:22:53.892Z,10.57
2022-12-03T09:25:40.932Z,10.32
2022-12-03T09:28:28.018Z,10.75
2022-12-03T09:31:16.085Z,10.52
2022-12-03T09:34:04.871Z,11.52
2022-12-03T09:36:51.899Z,11.15
2022-12-03T09:39:39.019Z,10.45
2022-12-03T09:42:26.357Z,10.57
2022-12-03T09:45:15.271Z,11.05
2022-12-03T09:48:04.161Z,10.38
2022-12-03T09:50:51.576Z,10.32
2022-12-03T09:53:41.390Z,10.10
2022-12-03T09:56:28.870Z,9.75
2022-12-03T09:59:17.049Z,9.98
2022-12-03T10:02:22.645Z,9.85
2022-12-03T10:05:09.868Z,10.48
2022-12-03T10:08:05.548Z,10.77
2022-12-03T10:10:56.679Z,10.00
2022-12-03T10:13:43.888Z,10.30
2022-12-03T10:16:31.493Z,10.95
2022-12-03T10:19:39.753Z,10.23
2022-12-03T10:22:26.746Z,10.02
2022-12-03T10:25:16.203Z,9.63
2022-12-03T10:28:04.097Z,9.65
2022-12-03T10:30:57.997Z,9.85
2022-12-03T10:33:47.385Z,10.48
2022-12-03T10:36:34.441Z,10.65
2022-12-03T10:39:21.456Z,10.07
2022-12-03T10:42:16.608Z,9.88
2022-12-03T10:45:19.571Z,10.02
2022-12-03T10:48:16.438Z,9.60
2022-12-03T10:51:05.060Z,9.35
2022-12-03T10:53:52.176Z,9.75
2022-12-03T10:56:39.264Z,10.10
2022-12-03T10:59:31.297Z,9.57
2022-12-03T11:02:24.087Z,10.75
2022-12-03T11:05:18.419Z,10.15
2022-12-03T11:08:05.585Z,9.60
2022-12-03T11:11:13.411Z,10.07
2022-12-03T11:14:02.837Z,9.95
2022-12-03T11:16:53.032Z,9.80
2022-12-03T11:22:39.120Z,10.32
2022-12-03T11:25:28.657Z,9.70
2022-12-03T11:28:36.810Z,9.80
2022-12-03T11:31:37.503Z,10.35
2022-12-03T11:34:31.623Z,10.27
2022-12-03T11:37:18.618Z,9.75
2022-12-03T11:40:17.976Z,9.82
2022-12-03T11:43:05.574Z,10.00
2022-12-03T11:45:52.677Z,10.60
2022-12-03T11:48:46.560Z,10.73
2022-12-03T11:51:33.625Z,10.63
2022-12-03T11:54:23.449Z,10.27
2022-12-03T11:57:29.778Z,10.27
2022-12-03T12:00:23.115Z,10.38
2022-12-03T12:03:24.895Z,10.70
2022-12-03T12:06:18.174Z,10.55
2022-12-03T12:09:05.227Z,10.93
2022-12-03T12:11:52.212Z,10.38
2022-12-03T12:14:39.224Z,10.75
2022-12-03T12:17:44.246Z,11.25
2022-12-03T12:20:31.315Z,11.63
2022-12-03T12:23:25.816Z,11.75
2022-12-03T12:26:13.066Z,11.23
2022-12-03T12:29:00.070Z,11.90
2022-12-03T12:31:53.674Z,11.77
2022-12-03T12:34:43.811Z,11.10
2022-12-03T12:37:47.310Z,11.93
2022-12-03T12:40:38.781Z,11.50
2022-12-03T12:43:28.042Z,12.23
2022-12-03T12:49:27.037Z,11.57
2022-12-03T12:52:15.096Z,11.77
2022-12-03T12:55:05.174Z,12.00
2022-12-03T12:57:52.572Z,10.98
2022-12-03T13:00:40.391Z,13.35
2022-12-03T13:03:32.971Z,13.02
2022-12-03T13:06:26.196Z,12.88
2022-12-03T13:09:22.891Z,11.85
2022-12-03T13:12:21.125Z,13.43
2022-12-03T13:15:46.782Z,13.07
2022-12-03T13:18:44.648Z,13.25
2022-12-03T13:21:44.070Z,13.02
2022-12-03T13:24:45.537Z,13.02
2022-12-03T13:27:35.517Z,12.65
2022-12-03T13:30:23.998Z,12.68
2022-12-03T13:33:26.137Z,14.00
2022-12-03T13:36:16.437Z,13.60
2022-12-03T13:39:15.723Z,14.73
2022-12-03T13:42:33.420Z,13.07
2022-12-03T13:45:20.504Z,14.20
2022-12-03T13:48:31.615Z,14.63
2022-12-03T13:51:27.583Z,13.82
2022-12-03T13:54:21.625Z,13.32
2022-12-03T13:57:08.651Z,13.35
2022-12-03T13:59:56.088Z,13.75
2022-12-03T14:02:43.662Z,15.25
2022-12-03T14:05:31.128Z,11.90
2022-12-03T14:08:18.226Z,12.90
2022-12-03T14:11:05.478Z,13.45
2022-12-03T14:13:52.467Z,13.55
2022-12-03T14:16:39.687Z,13.85
2022-12-03T14:19:26.862Z,14.90
2022-12-03T14:22:14.048Z,13.82
2022-12-03T14:25:01.035Z,13.43
2022-12-03T14:27:48.103Z,14.10
2022-12-03T14:30:36.017Z,15.10
2022-12-03T14:33:23.063Z,14.80
2022-12-03T14:36:10.204Z,14.20
2022-12-03T14:38:57.260Z,14.13
2022-12-03T14:42:03.121Z,13.30
2022-12-03T14:44:51.401Z,13.65
2022-12-03T14:47:38.588Z,14.15
2022-12-03T14:50:25.614Z,13.65
2022-12-03T14:53:12.645Z,12.82
2022-12-03T14:55:59.916Z,14.38
2022-12-03T14:58:47.329Z,13.98
2022-12-03T15:01:34.588Z,14.45
2022-12-03T15:04:21.832Z,12.40
2022-12-03T15:07:09.800Z,12.55
2022-12-03T15:09:57.133Z,13.30
2022-12-03T15:12:44.426Z,13.00
2022-12-03T15:15:31.448Z,14.23
2022-12-03T15:18:18.860Z,13.23
2022-12-03T15:21:05.999Z,14.15
2022-12-03T15:23:53.046Z,13.85
2022-12-03T15:26:40.056Z,15.52
2022-12-03T15:29:27.156Z,14.05
2022-12-03T15:32:14.216Z,13.80
2022-12-03T15:35:01.438Z,14.10
2022-12-03T15:37:48.579Z,13.38
2022-12-03T15:40:36.112Z,13.85
2022-12-03T15:43:23.442Z,13.02
2022-12-03T15:46:10.590Z,13.02
2022-12-03T15:48:57.850Z,14.57
2022-12-03T15:51:44.999Z,14.40
2022-12-03T15:54:32.358Z,15.02
2022-12-03T15:57:20.027Z,14.02
2022-12-03T16:00:08.923Z,14.75
2022-12-03T16:02:56.399Z,14.60
2022-12-03T16:05:43.595Z,15.75
2022-12-03T16:08:31.108Z,14.43
2022-12-03T16:11:18.276Z,14.80
2022-12-03T16:14:05.536Z,13.73
2022-12-03T16:16:53.070Z,13.98
2022-12-03T16:19:40.213Z,14.60
2022-12-03T16:22:28.442Z,12.85
2022-12-03T16:25:16.150Z,13.98
2022-12-03T16:28:04.987Z,13.68
2022-12-03T16:30:52.325Z,13.82
2022-12-03T16:33:39.918Z,13.63
2022-12-03T16:36:27.498Z,14.45
2022-12-03T16:39:16.776Z,14.68
2022-12-03T16:42:08.973Z,13.68
2022-12-03T16:44:59.965Z,11.93
2022-12-03T16:47:47.951Z,12.73
2022-12-03T16:50:37.713Z,12.23
2022-12-03T16:53:26.731Z,12.98
2022-12-03T16:56:14.581Z,13.85
2022-12-03T16:59:01.937Z,13.60
2022-12-03T17:01:49.562Z,13.82
2022-12-03T17:04:37.090Z,13.45
2022-12-03T17:07:24.256Z,13.30
2022-12-03T17:10:11.768Z,12.85
2022-12-03T17:13:14.742Z,13.65
2022-12-03T17:16:02.828Z,12.50
2022-12-03T17:18:52.647Z,12.85
2022-12-03T17:21:41.007Z,13.13
2022-12-03T17:24:28.453Z,14.00
2022-12-03T17:27:15.950Z,12.85
2022-12-03T17:30:04.458Z,12.70
2022-12-03T17:32:51.961Z,13.23
2022-12-03T17:35:39.404Z,14.98
2022-12-03T17:38:27.033Z,16.20
2022-12-03T17:41:15.706Z,15.25
2022-12-03T17:44:10.207Z,14.20
2022-12-03T17:46:59.534Z,14.77
2022-12-03T17:49:46.761Z,14.23
2022-12-03T17:52:34.049Z,15.13
2022-12-03T17:55:30.968Z,14.55
2022-12-03T17:58:23.536Z,14.20
2022-12-03T18:01:11.166Z,14.32
2022-12-03T18:03:58.839Z,14.80
2022-12-03T18:06:46.358Z,15.02
2022-12-03T18:09:33.747Z,14.27
2022-12-03T18:12:21.632Z,14.48
2022-12-03T18:15:10.371Z,14.52
2022-12-03T18:17:57.556Z,14.52
2022-12-03T18:20:45.191Z,13.93
2022-12-03T18:23:35.477Z,14.13
2022-12-03T18:26:23.551Z,14.65
2022-12-03T18:29:11.067Z,13.90
2022-12-03T18:31:58.367Z,14.18
2022-12-03T18:34:46.731Z,13.82
2022-12-03T18:37:37.886Z,14.33
2022-12-03T18:43:16.065Z,13.77
2022-12-03T18:46:04.721Z,13.15
2022-12-03T18:48:53.251Z,13.07
2022-12-03T18:51:40.960Z,13.80
2022-12-03T18:54:28.336Z,14.20
2022-12-03T18:57:16.328Z,13.10
2022-12-03T19:00:13.052Z,13.98
2022-12-03T19:03:03.587Z,14.48
2022-12-03T19:05:51.974Z,14.20
2022-12-03T19:08:42.131Z,14.18
2022-12-03T19:14:17.778Z,13.18
2022-12-03T19:17:05.533Z,13.43
2022-12-03T19:19:53.980Z,14.07
2022-12-03T19:22:42.200Z,14.48
2022-12-03T19:25:30.163Z,14.02
2022-12-03T19:28:19.011Z,13.60
2022-12-03T19:31:13.985Z,13.95
2022-12-03T19:34:01.867Z,13.57
2022-12-03T19:36:49.864Z,14.52
2022-12-03T19:39:37.450Z,12.80
2022-12-03T19:42:25.302Z,12.88
2022-12-03T19:45:13.458Z,14.18
2022-12-03T19:48:02.709Z,13.23
2022-12-03T19:51:07.988Z,13.13
2022-12-03T19:54:02.573Z,13.63
2022-12-03T19:56:52.627Z,14.95
2022-12-03T19:59:40.638Z,13.25
2022-12-03T20:02:28.822Z,14.10
2022-12-03T20:05:16.830Z,13.80
2022-12-03T20:08:07.137Z,14.57
2022-12-03T20:10:54.775Z,13.43
2022-12-03T20:13:43.656Z,13.13
2022-12-03T20:16:33.882Z,13.15
2022-12-03T20:19:21.978Z,13.27
2022-12-03T20:22:11.260Z,13.93
2022-12-03T20:24:59.921Z,13.63
2022-12-03T20:27:47.919Z,12.52
2022-12-03T20:30:35.593Z,14.02
2022-12-03T20:33:24.811Z,14.25
2022-12-03T20:36:14.949Z,14.67
2022-12-03T20:44:43.018Z,12.70
2022-12-03T20:47:30.734Z,13.13
2022-12-03T20:50:19.141Z,12.63
2022-12-03T20:53:24.426Z,14.45
2022-12-03T20:56:21.388Z,13.95
2022-12-03T20:59:12.889Z,12.95
2022-12-03T21:02:00.891Z,12.75
2022-12-03T21:04:49.641Z,14.82
2022-12-03T21:07:37.300Z,13.40
2022-12-03T21:10:36.780Z,13.80
2022-12-03T21:13:29.246Z,14.10
2022-12-03T21:16:39.270Z,13.95
2022-12-03T21:19:29.062Z,14.25
2022-12-03T21:22:16.680Z,14.18
2022-12-03T21:25:04.562Z,13.27
2022-12-03T21:27:52.071Z,13.70
2022-12-03T21:30:40.342Z,13.52
2022-12-03T21:33:28.502Z,14.63
2022-12-03T21:36:16.937Z,14.68
2022-12-03T21:39:05.141Z,14.27
2022-12-03T21:42:22.290Z,13.68
2022-12-03T21:44:59.748Z,14.68
2022-12-03T21:47:48.643Z,13.73
2022-12-03T21:50:37.487Z,14.20
2022-12-03T21:53:25.170Z,13.85
2022-12-03T21:56:15.910Z,14.32
2022-12-03T21:59:04.392Z,13.30
2022-12-03T22:01:51.863Z,13.95
2022-12-03T22:04:40.543Z,13.70
2022-12-03T22:07:28.056Z,13.00
2022-12-03T22:10:15.341Z,13.85
2022-12-03T22:13:02.570Z,13.50
2022-12-03T22:15:49.711Z,13.05
2022-12-03T22:18:37.441Z,13.80
2022-12-03T22:21:25.650Z,13.38
2022-12-03T22:24:12.698Z,13.68
2022-12-03T22:26:59.736Z,13.52
2022-12-03T22:29:46.786Z,12.60
2022-12-03T22:32:33.877Z,14.20
2022-12-03T22:35:21.165Z,13.75
2022-12-03T22:38:08.170Z,14.10
2022-12-03T22:40:55.407Z,13.43
2022-12-03T22:43:42.990Z,12.73
2022-12-03T22:46:30.185Z,13.43
2022-12-03T22:49:17.368Z,12.93
2022-12-03T22:52:04.448Z,12.77
2022-12-03T22:54:51.476Z,14.07
2022-12-03T22:57:38.518Z,13.50
2022-12-03T23:00:32.391Z,12.02
2022-12-03T23:03:19.799Z,11.27
2022-12-03T23:06:11.660Z,11.80
2022-12-03T23:08:59.389Z,11.93
2022-12-03T23:11:46.926Z,11.52
2022-12-03T23:14:33.950Z,11.13
2022-12-03T23:17:20.970Z,11.73
2022-12-03T23:20:08.589Z,10.40
2022-12-03T23:22:56.318Z,11.02
2022-12-03T23:25:43.815Z,11.48
2022-12-03T23:28:33.230Z,11.27
2022-12-03T23:31:29.936Z,11.95
2022-12-03T23:34:17.156Z,11.63
2022-12-03T23:37:06.223Z,12.57
2022-12-03T23:39:53.615Z,11.85
2022-12-03T23:42:40.834Z,11.43
2022-12-03T23:45:27.897Z,11.70
2022-12-03T23:48:14.978Z,11.85
2022-12-03T23:51:08.026Z,11.45
2022-12-03T23:53:55.798Z,11.27
2022-12-03T23:56:42.820Z,10.65
2022-12-03T23:59:30.020Z,11.10
